Time;durP1;ratioP1;P1;durP2;ratioP2;P2;SDS_P1;SDS_P2;PMS_P1;PMS_P2;Temp;Humidity;BMP_temperature;BMP_pressure;BME280_temperature;BME280_humidity;BME280_pressure;Samples;Min_cycle;Max_cycle;Signal;HPM_P1;HPM_P2
2024/03/07 00:03:55;;;;;;;28.80;16.90;;;;;;;6.19;71.68;99528.22;232158;200;138600;-54
2024/03/07 00:08:58;;;;;;;25.80;17.10;;;;;;;6.18;71.84;99529.65;232289;197;140811;-52
2024/03/07 00:14:02;;;;;;;27.60;16.40;;;;;;;6.16;71.85;99530.21;232203;204;154752;-54
2024/03/07 00:19:05;;;;;;;25.00;15.30;;;;;;;6.16;71.63;99525.84;231990;196;140966;-54
2024/03/07 00:24:10;;;;;;;24.20;14.70;;;;;;;6.08;71.69;99526.47;232314;197;137822;-54
2024/03/07 00:29:14;;;;;;;24.20;15.10;;;;;;;6.04;71.93;99525.38;232346;204;151979;-53
2024/03/07 00:34:19;;;;;;;26.70;17.40;;;;;;;6.07;72.01;99523.69;232414;201;138671;-54
2024/03/07 00:39:28;;;;;;;28.90;18.60;;;;;;;6.12;71.84;99521.41;232271;201;138306;-55
2024/03/07 00:44:31;;;;;;;31.30;18.40;;;;;;;6.13;71.72;99519.44;232322;197;153040;-51
2024/03/07 00:49:34;;;;;;;28.80;17.90;;;;;;;6.12;71.75;99520.70;232401;200;138621;-53
2024/03/07 00:54:37;;;;;;;35.20;19.50;;;;;;;6.11;71.76;99519.67;232329;203;138123;-53
2024/03/07 00:59:41;;;;;;;35.00;20.10;;;;;;;6.09;71.86;99513.25;231846;200;154671;-51
2024/03/07 01:04:44;;;;;;;31.70;19.20;;;;;;;6.08;71.68;99516.80;232251;200;138205;-54
2024/03/07 01:09:47;;;;;;;31.50;18.40;;;;;;;6.04;71.67;99514.30;232175;201;137084;-52
2024/03/07 01:14:51;;;;;;;35.10;19.20;;;;;;;5.98;71.32;99514.67;232212;197;153006;-51
2024/03/07 01:19:54;;;;;;;30.30;19.50;;;;;;;5.92;71.44;99512.41;232068;204;138032;-51
2024/03/07 01:24:57;;;;;;;31.20;16.90;;;;;;;5.94;71.56;99513.24;231881;196;139872;-53
2024/03/07 01:30:01;;;;;;;27.90;16.60;;;;;;;5.93;71.53;99514.84;232105;201;154973;-53
2024/03/07 01:35:07;;;;;;;30.90;17.70;;;;;;;5.98;71.73;99516.45;232286;204;138042;-55
2024/03/07 01:40:11;;;;;;;31.90;19.60;;;;;;;6.04;71.33;99516.23;232233;201;138509;-53
2024/03/07 01:45:14;;;;;;;34.20;19.60;;;;;;;5.97;70.81;99516.84;232169;196;154374;-52
2024/03/07 01:50:17;;;;;;;35.40;19.90;;;;;;;5.92;70.78;99518.92;232309;201;137594;-54
2024/03/07 01:55:25;;;;;;;30.80;18.60;;;;;;;5.92;70.67;99517.86;232248;201;139197;-54
2024/03/07 02:00:28;;;;;;;32.10;19.80;;;;;;;5.86;70.62;99516.14;232360;197;152992;-54
2024/03/07 02:05:31;;;;;;;32.20;19.10;;;;;;;5.82;70.53;99512.03;232213;204;138134;-53
2024/03/07 02:10:35;;;;;;;31.40;18.80;;;;;;;5.78;70.28;99510.45;232377;196;137589;-53
2024/03/07 02:15:38;;;;;;;32.90;19.30;;;;;;;5.75;70.39;99506.48;232226;200;153408;-53
2024/03/07 02:20:45;;;;;;;34.10;19.90;;;;;;;5.77;70.38;99505.85;232184;200;138579;-53
2024/03/07 02:25:49;;;;;;;32.40;19.20;;;;;;;5.78;70.49;99503.91;232314;204;141672;-52
2024/03/07 02:30:53;;;;;;;33.20;18.20;;;;;;;5.72;70.46;99504.98;232352;200;155054;-52
2024/03/07 02:35:56;;;;;;;31.30;18.40;;;;;;;5.70;70.44;99504.03;232270;196;138679;-54
2024/03/07 02:40:59;;;;;;;39.20;21.00;;;;;;;5.66;70.48;99504.30;232373;204;138875;-55
2024/03/07 02:46:03;;;;;;;39.40;21.30;;;;;;;5.68;70.64;99505.30;232180;201;154070;-53
2024/03/07 02:51:06;;;;;;;38.60;20.20;;;;;;;5.67;70.78;99503.41;232162;204;138684;-52
2024/03/07 02:56:09;;;;;;;40.70;20.90;;;;;;;5.65;70.54;99507.52;232320;196;138583;-54
2024/03/07 03:01:12;;;;;;;41.60;21.20;;;;;;;5.57;70.19;99510.09;231936;204;154359;-53
2024/03/07 03:06:16;;;;;;;38.80;22.10;;;;;;;5.46;70.32;99513.80;232107;197;138475;-54
2024/03/07 03:11:20;;;;;;;36.30;22.00;;;;;;;5.37;70.27;99513.38;232362;201;137255;-55
2024/03/07 03:16:23;;;;;;;37.40;21.20;;;;;;;5.34;70.45;99513.67;232280;204;155801;-51
2024/03/07 03:21:46;;;;;;;40.40;22.40;;;;;;;5.33;70.62;99513.02;232261;201;138254;-53
2024/03/07 03:26:50;;;;;;;37.40;21.10;;;;;;;5.32;70.57;99515.86;232241;204;137567;-51
2024/03/07 03:31:55;;;;;;;40.90;22.10;;;;;;;5.26;70.40;99514.13;232415;201;152915;-53
2024/03/07 03:36:58;;;;;;;40.00;20.40;;;;;;;5.26;70.36;99512.02;232267;204;137583;-52
2024/03/07 03:42:02;;;;;;;40.60;23.20;;;;;;;5.27;70.17;99515.68;231983;201;142877;-52
2024/03/07 03:47:05;;;;;;;40.30;23.30;;;;;;;5.31;70.11;99520.46;232344;204;153771;-53
2024/03/07 03:52:08;;;;;;;39.00;21.50;;;;;;;5.31;69.93;99520.31;232242;196;137763;-53
2024/03/07 03:57:11;;;;;;;40.50;21.40;;;;;;;5.29;69.85;99523.54;232203;201;138796;-52
2024/03/07 04:02:16;;;;;;;40.20;22.80;;;;;;;5.23;69.65;99521.08;232340;201;153807;-54
2024/03/07 04:07:20;;;;;;;42.90;22.50;;;;;;;5.25;69.87;99517.69;231728;204;138692;-55
2024/03/07 04:12:26;;;;;;;42.70;23.00;;;;;;;5.25;69.75;99522.05;232267;201;138864;-53
2024/03/07 04:17:30;;;;;;;40.40;23.20;;;;;;;5.21;69.43;99521.68;232428;197;153990;-53
2024/03/07 04:22:34;;;;;;;39.80;22.20;;;;;;;5.13;69.60;99526.86;232059;204;138126;-52
2024/03/07 04:27:39;;;;;;;39.90;22.10;;;;;;;5.08;69.59;99528.58;232296;196;137956;-52
2024/03/07 04:32:43;;;;;;;211.00;151.40;;;;;;;5.14;69.95;99534.92;232401;201;155127;-55
2024/03/07 04:37:46;;;;;;;50.00;32.00;;;;;;;5.27;70.19;99531.70;232358;197;138928;-55
2024/03/07 04:42:50;;;;;;;262.50;172.20;;;;;;;5.34;69.92;99533.73;232321;204;138638;-53
2024/03/07 04:47:53;;;;;;;46.10;27.60;;;;;;;5.35;69.73;99533.35;232261;204;153208;-55
2024/03/07 04:52:56;;;;;;;40.00;24.40;;;;;;;5.31;69.92;99536.82;232124;197;138499;-54
2024/03/07 04:57:59;;;;;;;40.90;23.90;;;;;;;5.26;69.41;99538.21;232406;201;138350;-55
2024/03/07 05:03:04;;;;;;;40.70;23.40;;;;;;;5.22;69.45;99545.73;232176;197;154903;-55
2024/03/07 05:08:08;;;;;;;42.30;22.60;;;;;;;5.18;69.60;99548.16;232326;204;137386;-53
2024/03/07 05:13:11;;;;;;;37.90;22.00;;;;;;;5.09;69.56;99553.55;232321;204;138188;-54
2024/03/07 05:18:14;;;;;;;40.00;22.60;;;;;;;5.02;69.71;99558.69;232310;204;153853;-53
2024/03/07 05:23:18;;;;;;;35.10;23.30;;;;;;;4.99;69.83;99561.59;232149;198;138112;-55
2024/03/07 05:28:22;;;;;;;39.50;24.00;;;;;;;4.99;70.67;99565.80;232484;196;138118;-53
2024/03/07 05:33:26;;;;;;;35.30;22.50;;;;;;;5.03;69.90;99568.85;232363;204;153362;-54
2024/03/07 05:38:29;;;;;;;40.50;23.90;;;;;;;5.05;69.64;99565.97;232410;204;139077;-51
2024/03/07 05:43:32;;;;;;;39.20;24.00;;;;;;;5.12;69.73;99569.10;232574;200;138760;-51
2024/03/07 05:48:35;;;;;;;38.90;23.50;;;;;;;5.16;69.76;99577.23;232287;200;153097;-51
2024/03/07 05:53:40;;;;;;;34.30;22.70;;;;;;;5.14;69.62;99581.52;232194;197;141943;-54
2024/03/07 05:58:43;;;;;;;38.90;23.90;;;;;;;5.07;69.72;99581.05;232315;204;137429;-50
2024/03/07 06:03:48;;;;;;;38.90;23.70;;;;;;;5.00;69.63;99580.90;231927;200;153573;-52
2024/03/07 06:08:51;;;;;;;40.70;23.00;;;;;;;4.97;69.82;99579.42;232331;204;137857;-50
2024/03/07 06:13:55;;;;;;;40.20;22.10;;;;;;;4.94;69.35;99586.67;232616;204;138394;-53
2024/03/07 06:18:59;;;;;;;38.60;22.90;;;;;;;4.90;69.33;99593.15;232492;204;153801;-51
2024/03/07 06:24:03;;;;;;;37.60;22.70;;;;;;;4.83;69.28;99594.05;232439;204;138692;-54
2024/03/07 06:29:13;;;;;;;39.20;22.00;;;;;;;4.84;69.21;99597.18;232436;201;137955;-53
2024/03/07 06:34:17;;;;;;;38.10;24.10;;;;;;;4.87;69.19;99600.08;232592;201;153273;-51
2024/03/07 06:39:21;;;;;;;36.90;22.80;;;;;;;4.90;68.77;99601.94;232386;204;138156;-50
2024/03/07 06:44:26;;;;;;;40.10;23.00;;;;;;;4.90;68.58;99604.24;232576;204;139111;-52
2024/03/07 06:49:30;;;;;;;39.10;23.10;;;;;;;4.90;68.52;99607.20;232474;200;154261;-52
2024/03/07 06:54:34;;;;;;;36.10;21.80;;;;;;;4.89;68.45;99615.52;232287;204;138235;-51
2024/03/07 06:59:37;;;;;;;37.20;22.50;;;;;;;4.88;68.37;99617.65;232385;204;140487;-51
2024/03/07 07:04:44;;;;;;;35.20;22.10;;;;;;;4.89;68.08;99622.37;232332;200;153934;-53
2024/03/07 07:09:51;;;;;;;38.80;23.00;;;;;;;4.85;67.84;99621.61;232493;200;139294;-53
2024/03/07 07:14:54;;;;;;;36.00;22.60;;;;;;;4.87;67.93;99621.55;232567;197;138286;-51
2024/03/07 07:19:58;;;;;;;36.00;21.10;;;;;;;4.88;67.89;99626.61;232307;204;154078;-54
2024/03/07 07:25:04;;;;;;;36.00;21.80;;;;;;;4.87;67.79;99632.83;232227;201;138179;-54
2024/03/07 07:30:08;;;;;;;;;;;;;;;4.87;67.62;99634.93;232593;204;138340;-53
2024/03/07 07:35:12;;;;;;;31.70;20.10;;;;;;;4.87;67.43;99639.83;232497;201;153503;-55
2024/03/07 07:40:18;;;;;;;31.70;20.00;;;;;;;4.85;67.49;99640.08;232241;200;138327;-55
2024/03/07 07:45:22;;;;;;;31.00;19.20;;;;;;;4.88;67.40;99638.05;232419;204;138174;-54
2024/03/07 07:50:26;;;;;;;33.80;21.50;;;;;;;4.99;67.31;99638.09;232358;197;153158;-52
2024/03/07 07:55:30;;;;;;;37.40;21.80;;;;;;;5.08;67.16;99638.85;232502;204;137331;-53
2024/03/07 08:00:35;;;;;;;32.90;21.00;;;;;;;5.10;66.76;99637.73;232316;201;137298;-52
2024/03/07 08:05:39;;;;;;;27.10;15.80;;;;;;;5.11;66.51;99640.02;232557;200;153199;-52
2024/03/07 08:10:42;;;;;;;33.10;21.50;;;;;;;5.05;66.40;99644.40;232303;204;138889;-54
2024/03/07 08:15:47;;;;;;;32.20;20.10;;;;;;;5.05;66.38;99641.25;232500;201;138179;-55
2024/03/07 08:20:51;;;;;;;33.10;20.70;;;;;;;5.02;66.48;99646.42;232501;204;153651;-55
2024/03/07 08:25:58;;;;;;;31.40;20.30;;;;;;;4.98;66.44;99650.58;232318;196;138484;-54
2024/03/07 08:31:02;;;;;;;33.80;20.20;;;;;;;4.95;66.29;99646.77;232428;204;137717;-52
2024/03/07 08:36:07;;;;;;;34.10;19.40;;;;;;;4.96;66.44;99649.05;232335;204;154613;-54
2024/03/07 08:41:11;;;;;;;32.90;20.20;;;;;;;5.02;66.49;99651.02;232368;197;138708;-51
2024/03/07 08:46:14;;;;;;;32.40;20.20;;;;;;;5.03;66.54;99654.31;232276;200;139808;-53
2024/03/07 08:51:17;;;;;;;33.90;20.10;;;;;;;5.00;66.52;99654.92;232429;204;154709;-49
2024/03/07 08:56:22;;;;;;;31.70;19.60;;;;;;;5.01;66.56;99657.91;232462;203;138475;-52
2024/03/07 09:01:25;;;;;;;29.10;20.10;;;;;;;5.01;66.46;99659.98;232546;200;138713;-54
2024/03/07 09:06:29;;;;;;;31.50;19.90;;;;;;;5.04;66.21;99661.87;232370;197;153767;-55
2024/03/07 09:11:32;;;;;;;34.50;19.40;;;;;;;5.01;65.97;99658.25;231977;198;138510;-54
2024/03/07 09:16:36;;;;;;;27.70;18.80;;;;;;;4.99;66.15;99660.05;232287;204;138145;-54
2024/03/07 09:21:40;;;;;;;30.80;18.90;;;;;;;5.00;66.04;99662.14;232394;204;153827;-55
2024/03/07 09:26:44;;;;;;;35.10;20.80;;;;;;;5.04;66.04;99671.87;232399;204;138259;-53
2024/03/07 09:31:51;;;;;;;29.90;19.70;;;;;;;5.07;66.09;99677.94;232340;197;138489;-52
2024/03/07 09:36:55;;;;;;;26.30;17.70;;;;;;;5.07;66.06;99678.98;232207;200;153473;-54
2024/03/07 09:41:58;;;;;;;30.30;18.90;;;;;;;5.15;66.04;99684.02;232364;196;139721;-54
2024/03/07 09:47:03;;;;;;;28.90;18.80;;;;;;;5.22;65.72;99686.27;232469;204;138452;-53
2024/03/07 09:52:11;;;;;;;27.90;18.80;;;;;;;5.31;65.73;99684.80;232469;196;153940;-52
2024/03/07 09:57:15;;;;;;;30.00;19.50;;;;;;;5.34;65.51;99687.31;232472;200;137362;-51
2024/03/07 10:02:20;;;;;;;29.10;18.60;;;;;;;5.39;65.41;99687.88;232508;204;137245;-54
2024/03/07 10:07:24;;;;;;;34.50;19.10;;;;;;;5.36;65.10;99686.39;232313;198;153252;-54
2024/03/07 10:12:27;;;;;;;31.80;19.60;;;;;;;5.31;65.33;99684.60;232523;197;137961;-53
2024/03/07 10:17:31;;;;;;;31.00;19.00;;;;;;;5.36;65.35;99687.26;232307;200;137440;-53
2024/03/07 10:22:34;;;;;;;34.30;19.50;;;;;;;5.34;64.94;99688.40;232171;200;152922;-53
2024/03/07 10:27:38;;;;;;;27.70;19.40;;;;;;;5.31;65.00;99689.89;232437;203;138175;-54
2024/03/07 10:32:42;;;;;;;31.20;18.80;;;;;;;5.30;65.17;99689.40;232402;201;138222;-55
2024/03/07 10:37:48;;;;;;;32.20;19.10;;;;;;;5.30;64.98;99692.55;232461;204;153120;-53
2024/03/07 10:42:57;;;;;;;30.20;19.30;;;;;;;5.33;65.08;99696.52;232504;201;138207;-50
2024/03/07 10:48:07;;;;;;;29.70;19.40;;;;;;;5.33;65.21;99700.73;232436;197;137123;-55
2024/03/07 10:53:22;;;;;;;25.50;18.20;;;;;;;5.33;64.87;99702.85;232012;201;156451;-55
2024/03/07 10:58:32;;;;;;;29.40;18.60;;;;;;;5.34;65.19;99702.45;232269;201;141940;-54
2024/03/07 11:03:35;;;;;;;30.40;18.20;;;;;;;5.35;65.00;99695.90;232508;204;138663;-52
2024/03/07 11:08:39;;;;;;;24.80;17.60;;;;;;;5.37;65.06;99695.16;232311;204;154334;-55
2024/03/07 11:13:44;;;;;;;26.60;17.50;;;;;;;5.39;65.06;99692.80;232302;201;138063;-54
2024/03/07 11:19:30;;;;;;;27.90;18.30;;;;;;;5.40;65.12;99688.73;232447;200;138696;-54
2024/03/07 11:24:33;;;;;;;28.60;18.30;;;;;;;5.40;64.83;99691.38;232567;204;153010;-55
2024/03/07 11:29:58;;;;;;;24.30;17.20;;;;;;;5.39;65.21;99688.06;232490;204;138281;-53
2024/03/07 11:35:07;;;;;;;22.10;13.40;;;;;;;5.42;64.88;99684.09;232223;204;138253;-54
2024/03/07 11:40:18;;;;;;;28.10;17.80;;;;;;;5.76;69.19;99683.73;232340;196;155463;-51
2024/03/07 11:45:25;;;;;;;24.80;15.60;;;;;;;6.02;64.66;99680.64;232236;203;138334;-54
2024/03/07 11:50:29;;;;;;;28.30;17.70;;;;;;;5.99;64.17;99682.67;232336;200;138279;-55
2024/03/07 11:55:47;;;;;;;27.40;17.20;;;;;;;6.00;63.84;99681.56;232376;204;153230;-54
2024/03/07 12:00:52;;;;;;;29.60;18.90;;;;;;;5.96;63.55;99686.14;232296;204;138335;-50
2024/03/07 12:05:56;;;;;;;27.50;17.90;;;;;;;5.90;63.60;99686.10;232391;196;137767;-51
2024/03/07 12:11:00;;;;;;;24.10;16.30;;;;;;;5.85;63.57;99685.91;232255;201;153094;-54
2024/03/07 12:16:04;;;;;;;29.50;18.20;;;;;;;5.82;63.37;99681.08;232178;200;138107;-55
2024/03/07 12:21:09;;;;;;;27.50;17.30;;;;;;;5.84;63.25;99680.13;232314;204;138205;-55
2024/03/07 12:26:16;;;;;;;27.80;16.50;;;;;;;5.81;63.20;99679.34;232247;201;153366;-54
2024/03/07 12:31:23;;;;;;;24.00;16.50;;;;;;;5.79;63.49;99678.35;232260;201;139041;-55
2024/03/07 12:36:34;;;;;;;29.40;17.70;;;;;;;5.81;63.86;99673.52;232240;197;137801;-52
2024/03/07 12:41:39;;;;;;;28.50;17.00;;;;;;;5.85;63.86;99679.04;232374;200;153101;-54
2024/03/07 12:46:45;;;;;;;26.10;17.10;;;;;;;5.86;63.79;99679.52;232212;203;137898;-55
2024/03/07 12:51:50;;;;;;;29.10;16.90;;;;;;;5.86;63.59;99680.25;232298;200;137841;-54
2024/03/07 12:56:53;;;;;;;22.40;15.60;;;;;;;5.89;63.91;99680.50;232363;200;154364;-54
2024/03/07 13:01:56;;;;;;;20.90;15.10;;;;;;;5.93;63.63;99682.15;232327;196;139154;-52
2024/03/07 13:07:04;;;;;;;22.70;14.90;;;;;;;5.99;63.40;99682.66;232133;197;141735;-51
2024/03/07 13:12:09;;;;;;;26.30;15.40;;;;;;;6.05;63.21;99682.30;232299;197;153417;-53
2024/03/07 13:17:14;;;;;;;21.20;15.10;;;;;;;6.14;63.07;99678.28;231618;197;138794;-56
2024/03/07 13:22:17;;;;;;;44.90;29.70;;;;;;;6.27;63.40;99674.87;232309;204;137843;-54
2024/03/07 13:27:27;;;;;;;21.70;15.00;;;;;;;6.46;62.90;99671.21;232244;204;153603;-52
2024/03/07 13:32:31;;;;;;;22.20;14.60;;;;;;;6.64;62.42;99669.67;232378;200;138030;-54
2024/03/07 13:37:35;;;;;;;19.10;14.20;;;;;;;6.76;62.08;99668.52;232203;204;138366;-54
2024/03/07 13:42:39;;;;;;;20.10;14.10;;;;;;;6.81;61.65;99670.64;232421;203;152967;-54
2024/03/07 13:47:42;;;;;;;19.30;13.60;;;;;;;6.81;61.17;99672.22;232451;197;138574;-55
2024/03/07 13:53:04;;;;;;;20.20;13.60;;;;;;;6.82;60.73;99673.08;232482;204;138329;-57
2024/03/07 13:58:17;;;;;;;24.80;13.30;;;;;;;6.82;60.53;99668.15;232330;197;153891;-57
2024/03/07 14:03:41;;;;;;;17.40;12.10;;;;;;;6.79;60.48;99663.13;232466;204;137537;-59
2024/03/07 14:09:18;;;;;;;19.50;12.10;;;;;;;6.74;60.15;99668.60;232222;204;138003;-54
2024/03/07 14:14:52;;;;;;;23.60;12.90;;;;;;;6.77;60.31;99667.98;232271;196;154649;-61
2024/03/07 14:20:48;;;;;;;16.40;11.90;;;;;;;6.82;59.99;99663.02;232399;204;138051;-53
2024/03/07 14:26:02;;;;;;;16.60;11.60;;;;;;;6.87;59.82;99664.07;232025;198;138325;-54
2024/03/07 14:31:11;;;;;;;22.20;12.40;;;;;;;6.91;59.88;99660.93;232452;203;153871;-53
2024/03/07 14:36:15;;;;;;;410.50;312.90;;;;;;;6.93;59.64;99659.45;232441;204;139631;-55
2024/03/07 14:41:23;;;;;;;26.50;17.20;;;;;;;6.98;59.56;99658.55;232327;204;138496;-55
2024/03/07 14:46:26;;;;;;;20.00;12.10;;;;;;;6.99;59.02;99654.83;232136;204;155254;-56
2024/03/07 14:51:30;;;;;;;19.80;11.70;;;;;;;7.01;59.14;99651.77;232316;200;138255;-50
2024/03/07 14:56:43;;;;;;;17.10;11.50;;;;;;;6.96;58.91;99648.92;232335;204;138513;-51
2024/03/07 15:01:46;;;;;;;21.70;12.70;;;;;;;6.97;58.92;99649.05;231849;200;153199;-52
2024/03/07 15:06:52;;;;;;;15.00;11.50;;;;;;;7.02;58.22;99644.13;232198;202;138465;-53
2024/03/07 15:11:55;;;;;;;;;;;;;;;7.02;58.34;99642.88;232521;203;138229;-50
2024/03/07 15:16:58;;;;;;;18.20;12.00;;;;;;;6.97;58.32;99638.30;232407;203;153440;-54
2024/03/07 15:22:05;;;;;;;18.90;11.20;;;;;;;6.90;58.02;99637.00;232159;200;137281;-52
2024/03/07 15:27:10;;;;;;;17.70;11.70;;;;;;;6.80;58.17;99637.19;232460;204;137889;-58
2024/03/07 15:32:17;;;;;;;16.70;11.30;;;;;;;6.74;58.13;99639.16;232424;204;153240;-58
2024/03/07 15:37:23;;;;;;;17.80;11.20;;;;;;;6.75;58.12;99640.20;232163;201;137972;-57
2024/03/07 15:42:28;;;;;;;22.30;11.10;;;;;;;6.75;58.12;99641.96;232067;200;138670;-54
2024/03/07 15:47:31;;;;;;;24.70;11.50;;;;;;;6.74;58.25;99650.27;232401;201;153146;-56
2024/03/07 15:52:35;;;;;;;18.20;11.40;;;;;;;6.72;58.18;99650.16;232204;198;137619;-57
2024/03/07 15:57:53;;;;;;;18.80;11.80;;;;;;;6.71;58.11;99649.50;232308;201;138101;-57
2024/03/07 16:03:12;;;;;;;16.00;11.30;;;;;;;6.67;58.17;99655.46;232227;203;153376;-57
2024/03/07 16:08:17;;;;;;;19.00;11.50;;;;;;;6.61;58.07;99660.45;232372;204;139877;-56
2024/03/07 16:13:21;;;;;;;16.90;11.10;;;;;;;6.53;58.01;99664.59;232475;203;139654;-56
2024/03/07 16:18:27;;;;;;;19.20;12.20;;;;;;;6.51;57.50;99668.90;232322;203;154171;-58
2024/03/07 16:23:32;;;;;;;18.50;11.60;;;;;;;6.51;57.44;99670.52;232325;204;139592;-58
2024/03/07 16:28:36;;;;;;;16.50;11.50;;;;;;;6.51;57.57;99674.38;232367;203;137532;-59
2024/03/07 16:33:40;;;;;;;19.00;10.40;;;;;;;6.51;57.30;99677.02;231843;204;155012;-58
2024/03/07 16:38:43;;;;;;;16.00;11.50;;;;;;;6.46;57.13;99673.66;232234;197;138340;-54
2024/03/07 16:43:50;;;;;;;17.90;11.10;;;;;;;6.43;57.14;99673.94;232317;198;138296;-54
2024/03/07 16:48:55;;;;;;;18.70;11.70;;;;;;;6.40;57.44;99677.93;232452;204;154737;-48
2024/03/07 16:53:58;;;;;;;19.50;12.80;;;;;;;6.39;57.78;99676.39;232265;204;138491;-52
2024/03/07 16:59:04;;;;;;;17.50;11.60;;;;;;;6.37;57.93;99680.84;232469;196;138766;-53
2024/03/07 17:04:08;;;;;;;505.50;374.20;;;;;;;6.35;58.33;99682.85;232396;201;153621;-54
2024/03/07 17:09:11;;;;;;;35.20;23.90;;;;;;;6.46;58.65;99686.88;232252;203;138186;-53
2024/03/07 17:14:15;;;;;;;25.00;15.60;;;;;;;6.43;58.35;99689.11;232251;201;137495;-54
2024/03/07 17:19:21;;;;;;;21.70;14.20;;;;;;;6.34;58.77;99696.29;232438;204;154945;-53
2024/03/07 17:24:25;;;;;;;22.70;13.30;;;;;;;6.28;59.03;99702.86;232339;201;138205;-53
2024/03/07 17:29:29;;;;;;;219.10;150.00;;;;;;;6.28;59.46;99709.52;232252;201;138188;-54
2024/03/07 17:34:32;;;;;;;29.20;19.10;;;;;;;6.40;59.77;99710.36;232400;204;153331;-53
2024/03/07 17:39:35;;;;;;;25.50;15.60;;;;;;;6.35;59.03;99720.02;231220;197;139330;-54
2024/03/07 17:44:39;;;;;;;23.90;14.30;;;;;;;6.28;59.43;99721.85;232436;200;139637;-54
2024/03/07 17:49:43;;;;;;;19.60;13.60;;;;;;;6.19;59.44;99718.99;232032;201;153909;-56
2024/03/07 17:54:46;;;;;;;21.40;13.90;;;;;;;6.07;59.47;99719.92;232397;204;138453;-55
2024/03/07 17:59:49;;;;;;;18.60;13.10;;;;;;;6.01;59.34;99725.91;232377;196;139046;-54
2024/03/07 18:04:53;;;;;;;24.10;12.80;;;;;;;5.97;59.28;99728.73;231824;204;154452;-57
2024/03/07 18:09:56;;;;;;;24.30;13.10;;;;;;;5.90;59.21;99728.38;232440;201;138937;-57
2024/03/07 18:15:00;;;;;;;23.80;14.00;;;;;;;5.83;59.26;99731.77;232005;201;138614;-57
2024/03/07 18:20:29;;;;;;;21.70;13.10;;;;;;;5.75;59.41;99739.23;232272;204;153041;-57
2024/03/07 18:25:35;;;;;;;19.50;13.10;;;;;;;5.66;59.44;99742.86;232099;204;137685;-54
2024/03/07 18:30:39;;;;;;;21.40;14.00;;;;;;;5.63;59.57;99740.83;232200;201;137989;-55
2024/03/07 18:35:45;;;;;;;22.70;13.80;;;;;;;5.61;59.66;99745.84;232219;201;154221;-55
2024/03/07 18:40:49;;;;;;;23.10;13.40;;;;;;;5.57;59.73;99745.05;232287;203;137705;-53
2024/03/07 18:45:52;;;;;;;375.90;274.80;;;;;;;5.57;60.48;99748.60;232489;204;139035;-53
2024/03/07 18:50:55;;;;;;;47.80;29.20;;;;;;;5.80;61.71;99747.18;231603;204;152897;-51
2024/03/07 18:56:09;;;;;;;23.70;15.40;;;;;;;5.76;59.90;99745.01;232386;198;137653;-54
2024/03/07 19:01:15;;;;;;;22.40;14.60;;;;;;;5.64;59.71;99752.05;232484;197;140008;-54
2024/03/07 19:06:18;;;;;;;19.50;14.00;;;;;;;5.59;59.91;99750.64;232407;204;153277;-55
2024/03/07 19:11:21;;;;;;;21.40;15.10;;;;;;;5.54;59.90;99748.16;232489;203;137506;-55
2024/03/07 19:16:28;;;;;;;23.80;14.10;;;;;;;5.47;59.93;99747.29;232520;204;137458;-55
2024/03/07 19:21:33;;;;;;;21.20;14.40;;;;;;;5.42;59.85;99744.98;232481;204;153539;-54
2024/03/07 19:26:47;;;;;;;23.50;14.60;;;;;;;5.39;60.13;99749.10;232250;201;137886;-53
2024/03/07 19:31:54;;;;;;;26.70;15.50;;;;;;;5.40;59.93;99749.27;232495;200;138148;-55
2024/03/07 19:36:57;;;;;;;21.80;14.70;;;;;;;5.37;59.90;99750.94;232351;204;153107;-54
2024/03/07 19:42:03;;;;;;;22.30;15.20;;;;;;;5.34;59.95;99750.15;232358;204;138019;-55
2024/03/07 19:47:13;;;;;;;23.10;14.90;;;;;;;5.32;59.93;99749.13;232314;196;138615;-55
2024/03/07 19:52:16;;;;;;;21.70;15.10;;;;;;;5.29;60.02;99744.66;232483;204;153363;-53
2024/03/07 19:57:20;;;;;;;24.70;15.10;;;;;;;5.25;60.24;99743.37;232201;201;137309;-55
2024/03/07 20:02:23;;;;;;;21.20;14.90;;;;;;;5.22;60.47;99748.36;232569;201;138359;-55
2024/03/07 20:07:29;;;;;;;25.50;14.80;;;;;;;5.24;60.49;99744.97;232473;204;153783;-53
2024/03/07 20:12:37;;;;;;;24.00;14.70;;;;;;;5.25;60.48;99744.43;232529;200;138030;-55
2024/03/07 20:17:43;;;;;;;28.20;16.00;;;;;;;5.25;60.62;99744.09;232474;201;138696;-55
2024/03/07 20:22:47;;;;;;;28.80;16.60;;;;;;;5.25;60.49;99745.82;232332;204;153165;-52
2024/03/07 20:27:55;;;;;;;21.10;15.30;;;;;;;5.26;60.60;99750.89;232325;204;137588;-53
2024/03/07 20:32:59;;;;;;;25.60;16.40;;;;;;;5.26;60.61;99748.25;232262;204;138213;-53
2024/03/07 20:38:04;;;;;;;24.10;15.80;;;;;;;5.26;60.54;99743.34;232459;197;154151;-53
2024/03/07 20:43:08;;;;;;;27.70;16.10;;;;;;;5.25;60.49;99741.95;232354;204;138026;-54
2024/03/07 20:48:11;;;;;;;24.90;16.00;;;;;;;5.25;60.58;99744.59;232260;204;138148;-52
2024/03/07 20:53:16;;;;;;;24.00;15.80;;;;;;;5.25;60.43;99740.04;232361;201;153885;-55
2024/03/07 20:58:20;;;;;;;25.60;16.20;;;;;;;5.23;60.25;99740.62;232485;205;137549;-54
2024/03/07 21:03:23;;;;;;;25.90;15.80;;;;;;;5.24;60.27;99740.08;232342;197;137744;-54
2024/03/07 21:08:27;;;;;;;27.30;15.80;;;;;;;5.21;60.16;99736.98;232378;204;154297;-54
2024/03/07 21:13:30;;;;;;;27.60;15.60;;;;;;;5.20;60.02;99734.02;232444;204;138473;-55
2024/03/07 21:18:33;;;;;;;28.00;15.70;;;;;;;5.21;59.89;99733.79;232481;203;137818;-54
2024/03/07 21:23:36;;;;;;;20.40;14.70;;;;;;;5.17;59.80;99734.27;232503;200;153213;-54
2024/03/07 21:28:40;;;;;;;27.00;14.60;;;;;;;5.16;59.83;99736.05;232491;204;137699;-55
2024/03/07 21:33:44;;;;;;;23.50;15.20;;;;;;;5.16;59.81;99728.14;232419;204;138480;-53
2024/03/07 21:38:47;;;;;;;24.20;15.90;;;;;;;5.15;59.76;99726.25;232421;204;153633;-54
2024/03/07 21:43:51;;;;;;;24.90;16.10;;;;;;;5.11;59.64;99723.54;232463;201;138175;-55
2024/03/07 21:48:55;;;;;;;25.70;16.30;;;;;;;5.09;59.92;99722.37;232382;200;138054;-55
2024/03/07 21:53:59;;;;;;;28.90;16.40;;;;;;;5.07;59.81;99716.44;232279;197;153006;-55
2024/03/07 21:59:02;;;;;;;22.60;15.50;;;;;;;5.06;59.90;99714.02;232196;201;137984;-54
2024/03/07 22:04:09;;;;;;;21.50;14.80;;;;;;;5.04;59.96;99715.30;232536;203;138414;-55
2024/03/07 22:09:13;;;;;;;24.50;15.70;;;;;;;5.05;60.08;99717.76;232423;204;153909;-54
2024/03/07 22:14:21;;;;;;;22.80;14.80;;;;;;;5.05;60.01;99717.23;232237;198;137915;-54
2024/03/07 22:19:25;;;;;;;22.90;14.10;;;;;;;5.00;59.95;99713.48;232316;204;138712;-52
2024/03/07 22:24:28;;;;;;;23.90;15.30;;;;;;;4.94;60.13;99707.85;232544;201;153365;-55
2024/03/07 22:29:33;;;;;;;24.30;15.20;;;;;;;4.90;60.25;99706.38;232305;204;137771;-55
2024/03/07 22:34:39;;;;;;;23.20;15.90;;;;;;;4.87;60.36;99706.12;232284;204;137592;-55
2024/03/07 22:39:45;;;;;;;24.20;15.20;;;;;;;4.86;60.44;99703.52;232487;204;154125;-56
2024/03/07 22:44:48;;;;;;;22.30;15.00;;;;;;;4.83;60.32;99699.20;232384;201;138218;-55
2024/03/07 22:49:52;;;;;;;24.80;15.40;;;;;;;4.82;60.46;99699.04;232615;200;138915;-53
2024/03/07 22:55:08;;;;;;;23.40;15.40;;;;;;;4.79;60.54;99702.30;232592;204;154802;-56
2024/03/07 23:00:24;;;;;;;24.10;15.40;;;;;;;4.78;60.73;99697.41;232570;200;138049;-56
2024/03/07 23:05:30;;;;;;;23.00;15.70;;;;;;;4.77;60.69;99696.91;232402;201;138918;-56
2024/03/07 23:10:34;;;;;;;26.40;15.30;;;;;;;4.77;60.63;99697.63;232411;201;154209;-57
2024/03/07 23:15:37;;;;;;;23.50;14.90;;;;;;;4.76;60.39;99694.31;231715;197;138991;-56
2024/03/07 23:20:41;;;;;;;22.80;15.20;;;;;;;4.75;60.39;99692.38;232258;201;137981;-57
2024/03/07 23:25:45;;;;;;;25.20;15.30;;;;;;;4.74;60.57;99691.34;232296;204;153283;-53